sensor_id;sensor_type;location;lat;lon;timestamp;P1;durP1;ratioP1;P2;durP2;ratioP2
45011;SDS011;63444;48.148;11.542;2023-02-21T00:02:06;2.87;;;1.90;;
45011;SDS011;63444;48.148;11.542;2023-02-21T00:04:50;4.10;;;1.93;;
45011;SDS011;63444;48.148;11.542;2023-02-21T00:07:34;2.30;;;2.10;;
45011;SDS011;63444;48.148;11.542;2023-02-21T00:10:18;5.33;;;2.13;;
45011;SDS011;63444;48.148;11.542;2023-02-21T00:13:02;2.53;;;2.00;;
45011;SDS011;63444;48.148;11.542;2023-02-21T00:15:46;2.80;;;1.97;;
45011;SDS011;63444;48.148;11.542;2023-02-21T00:18:34;5.37;;;2.33;;
45011;SDS011;63444;48.148;11.542;2023-02-21T00:21:19;2.43;;;1.90;;
45011;SDS011;63444;48.148;11.542;2023-02-21T00:24:03;2.30;;;2.10;;
45011;SDS011;63444;48.148;11.542;2023-02-21T00:26:48;3.07;;;2.03;;
45011;SDS011;63444;48.148;11.542;2023-02-21T00:29:32;2.73;;;2.00;;
45011;SDS011;63444;48.148;11.542;2023-02-21T00:32:16;5.83;;;2.37;;
45011;SDS011;63444;48.148;11.542;2023-02-21T00:35:00;3.27;;;2.27;;
45011;SDS011;63444;48.148;11.542;2023-02-21T00:37:48;3.83;;;2.20;;
45011;SDS011;63444;48.148;11.542;2023-02-21T00:40:35;2.30;;;2.10;;
45011;SDS011;63444;48.148;11.542;2023-02-21T00:43:29;4.20;;;2.40;;
45011;SDS011;63444;48.148;11.542;2023-02-21T00:46:15;3.10;;;1.93;;
45011;SDS011;63444;48.148;11.542;2023-02-21T00:49:00;5.17;;;2.30;;
45011;SDS011;63444;48.148;11.542;2023-02-21T00:51:44;5.20;;;2.53;;
45011;SDS011;63444;48.148;11.542;2023-02-21T00:54:28;3.83;;;2.37;;
45011;SDS011;63444;48.148;11.542;2023-02-21T00:57:12;6.93;;;2.23;;
45011;SDS011;63444;48.148;11.542;2023-02-21T00:59:56;2.37;;;2.10;;
45011;SDS011;63444;48.148;11.542;2023-02-21T01:02:41;3.77;;;2.40;;
45011;SDS011;63444;48.148;11.542;2023-02-21T01:05:25;3.13;;;2.13;;
45011;SDS011;63444;48.148;11.542;2023-02-21T01:08:10;7.17;;;2.40;;
45011;SDS011;63444;48.148;11.542;2023-02-21T01:10:54;3.77;;;2.43;;
45011;SDS011;63444;48.148;11.542;2023-02-21T01:13:38;4.97;;;2.10;;
45011;SDS011;63444;48.148;11.542;2023-02-21T01:16:23;3.40;;;2.20;;
45011;SDS011;63444;48.148;11.542;2023-02-21T01:19:07;2.57;;;2.10;;
45011;SDS011;63444;48.148;11.542;2023-02-21T01:21:51;3.13;;;2.20;;
45011;SDS011;63444;48.148;11.542;2023-02-21T01:24:35;2.33;;;1.97;;
45011;SDS011;63444;48.148;11.542;2023-02-21T01:27:20;3.07;;;2.47;;
45011;SDS011;63444;48.148;11.542;2023-02-21T01:30:06;4.47;;;2.20;;
45011;SDS011;63444;48.148;11.542;2023-02-21T01:32:51;2.47;;;2.00;;
45011;SDS011;63444;48.148;11.542;2023-02-21T01:35:35;3.40;;;2.00;;
45011;SDS011;63444;48.148;11.542;2023-02-21T01:38:20;3.27;;;2.00;;
45011;SDS011;63444;48.148;11.542;2023-02-21T01:41:05;2.80;;;2.27;;
45011;SDS011;63444;48.148;11.542;2023-02-21T01:43:59;4.07;;;2.03;;
45011;SDS011;63444;48.148;11.542;2023-02-21T01:46:45;4.27;;;2.40;;
45011;SDS011;63444;48.148;11.542;2023-02-21T01:49:29;4.70;;;2.40;;
45011;SDS011;63444;48.148;11.542;2023-02-21T01:52:15;3.30;;;2.20;;
45011;SDS011;63444;48.148;11.542;2023-02-21T01:55:00;3.03;;;2.27;;
45011;SDS011;63444;48.148;11.542;2023-02-21T01:57:45;4.23;;;2.40;;
45011;SDS011;63444;48.148;11.542;2023-02-21T02:00:30;3.73;;;2.50;;
45011;SDS011;63444;48.148;11.542;2023-02-21T02:03:16;4.17;;;1.97;;
45011;SDS011;63444;48.148;11.542;2023-02-21T02:06:03;4.30;;;2.30;;
45011;SDS011;63444;48.148;11.542;2023-02-21T02:08:50;6.73;;;2.20;;
45011;SDS011;63444;48.148;11.542;2023-02-21T02:37:27;2.67;;;2.20;;
45011;SDS011;63444;48.148;11.542;2023-02-21T02:42:55;4.77;;;2.10;;
45011;SDS011;63444;48.148;11.542;2023-02-21T02:45:31;3.33;;;2.43;;
45011;SDS011;63444;48.148;11.542;2023-02-21T02:48:14;4.90;;;2.90;;
45011;SDS011;63444;48.148;11.542;2023-02-21T02:50:46;4.83;;;2.40;;
45011;SDS011;63444;48.148;11.542;2023-02-21T02:53:18;3.50;;;2.57;;
45011;SDS011;63444;48.148;11.542;2023-02-21T02:55:50;2.70;;;2.30;;
45011;SDS011;63444;48.148;11.542;2023-02-21T02:58:20;3.47;;;2.57;;
45011;SDS011;63444;48.148;11.542;2023-02-21T03:00:52;2.43;;;2.23;;
45011;SDS011;63444;48.148;11.542;2023-02-21T03:11:50;3.33;;;2.47;;
45011;SDS011;63444;48.148;11.542;2023-02-21T03:14:33;2.87;;;2.30;;
45011;SDS011;63444;48.148;11.542;2023-02-21T03:17:05;3.50;;;2.40;;
45011;SDS011;63444;48.148;11.542;2023-02-21T03:19:37;3.23;;;2.20;;
45011;SDS011;63444;48.148;11.542;2023-02-21T03:22:15;6.37;;;2.60;;
45011;SDS011;63444;48.148;11.542;2023-02-21T03:24:44;2.50;;;2.30;;
45011;SDS011;63444;48.148;11.542;2023-02-21T03:27:12;3.03;;;2.63;;
45011;SDS011;63444;48.148;11.542;2023-02-21T03:29:38;2.40;;;2.20;;
45011;SDS011;63444;48.148;11.542;2023-02-21T03:32:09;3.07;;;2.40;;
45011;SDS011;63444;48.148;11.542;2023-02-21T03:34:48;5.43;;;2.23;;
45011;SDS011;63444;48.148;11.542;2023-02-21T03:37:21;6.27;;;2.40;;
45011;SDS011;63444;48.148;11.542;2023-02-21T03:39:57;5.27;;;2.40;;
45011;SDS011;63444;48.148;11.542;2023-02-21T03:42:23;2.77;;;2.30;;
45011;SDS011;63444;48.148;11.542;2023-02-21T03:44:48;3.47;;;2.67;;
45011;SDS011;63444;48.148;11.542;2023-02-21T03:47:14;2.60;;;2.30;;
45011;SDS011;63444;48.148;11.542;2023-02-21T03:49:40;3.97;;;2.63;;
45011;SDS011;63444;48.148;11.542;2023-02-21T03:52:08;4.20;;;2.30;;
45011;SDS011;63444;48.148;11.542;2023-02-21T03:54:36;4.10;;;2.70;;
45011;SDS011;63444;48.148;11.542;2023-02-21T03:57:03;2.60;;;2.40;;
45011;SDS011;63444;48.148;11.542;2023-02-21T03:59:28;3.23;;;2.10;;
45011;SDS011;63444;48.148;11.542;2023-02-21T04:01:54;2.70;;;2.23;;
45011;SDS011;63444;48.148;11.542;2023-02-21T04:04:19;3.40;;;2.60;;
45011;SDS011;63444;48.148;11.542;2023-02-21T04:06:45;3.07;;;2.50;;
45011;SDS011;63444;48.148;11.542;2023-02-21T04:09:11;3.50;;;2.70;;
45011;SDS011;63444;48.148;11.542;2023-02-21T04:11:36;4.90;;;2.60;;
45011;SDS011;63444;48.148;11.542;2023-02-21T04:14:03;3.93;;;2.43;;
45011;SDS011;63444;48.148;11.542;2023-02-21T04:16:31;3.43;;;2.30;;
45011;SDS011;63444;48.148;11.542;2023-02-21T04:18:56;5.93;;;2.87;;
45011;SDS011;63444;48.148;11.542;2023-02-21T04:21:22;4.57;;;2.57;;
45011;SDS011;63444;48.148;11.542;2023-02-21T04:23:48;5.80;;;2.67;;
45011;SDS011;63444;48.148;11.542;2023-02-21T04:26:13;4.53;;;2.53;;
45011;SDS011;63444;48.148;11.542;2023-02-21T04:28:40;4.00;;;2.70;;
45011;SDS011;63444;48.148;11.542;2023-02-21T04:31:05;5.80;;;2.70;;
45011;SDS011;63444;48.148;11.542;2023-02-21T04:33:31;4.47;;;2.50;;
45011;SDS011;63444;48.148;11.542;2023-02-21T04:35:56;4.97;;;2.60;;
45011;SDS011;63444;48.148;11.542;2023-02-21T04:38:22;3.77;;;3.23;;
45011;SDS011;63444;48.148;11.542;2023-02-21T04:40:48;3.50;;;2.40;;
45011;SDS011;63444;48.148;11.542;2023-02-21T04:43:13;3.30;;;2.50;;
45011;SDS011;63444;48.148;11.542;2023-02-21T04:45:39;4.10;;;3.23;;
45011;SDS011;63444;48.148;11.542;2023-02-21T04:48:05;4.43;;;3.00;;
45011;SDS011;63444;48.148;11.542;2023-02-21T04:50:32;4.57;;;3.07;;
45011;SDS011;63444;48.148;11.542;2023-02-21T04:53:00;3.93;;;3.20;;
45011;SDS011;63444;48.148;11.542;2023-02-21T04:55:25;3.30;;;2.60;;
45011;SDS011;63444;48.148;11.542;2023-02-21T04:57:52;6.80;;;2.90;;
45011;SDS011;63444;48.148;11.542;2023-02-21T05:00:18;6.00;;;3.10;;
45011;SDS011;63444;48.148;11.542;2023-02-21T05:02:45;4.53;;;3.10;;
45011;SDS011;63444;48.148;11.542;2023-02-21T05:05:11;6.50;;;3.40;;
45011;SDS011;63444;48.148;11.542;2023-02-21T05:07:36;4.73;;;2.87;;
45011;SDS011;63444;48.148;11.542;2023-02-21T05:10:03;6.23;;;2.90;;
45011;SDS011;63444;48.148;11.542;2023-02-21T05:12:32;4.13;;;2.70;;
45011;SDS011;63444;48.148;11.542;2023-02-21T05:14:57;4.17;;;3.27;;
45011;SDS011;63444;48.148;11.542;2023-02-21T05:17:23;3.87;;;2.60;;
45011;SDS011;63444;48.148;11.542;2023-02-21T05:19:49;4.17;;;3.03;;
45011;SDS011;63444;48.148;11.542;2023-02-21T05:22:15;6.80;;;2.97;;
45011;SDS011;63444;48.148;11.542;2023-02-21T05:24:44;6.60;;;3.00;;
45011;SDS011;63444;48.148;11.542;2023-02-21T05:27:11;4.70;;;2.97;;
45011;SDS011;63444;48.148;11.542;2023-02-21T05:29:40;5.17;;;3.10;;
45011;SDS011;63444;48.148;11.542;2023-02-21T05:32:06;3.93;;;2.77;;
45011;SDS011;63444;48.148;11.542;2023-02-21T05:34:31;3.43;;;2.67;;
45011;SDS011;63444;48.148;11.542;2023-02-21T05:36:57;3.07;;;2.67;;
45011;SDS011;63444;48.148;11.542;2023-02-21T05:39:23;5.37;;;3.03;;
45011;SDS011;63444;48.148;11.542;2023-02-21T05:41:49;3.87;;;2.63;;
45011;SDS011;63444;48.148;11.542;2023-02-21T05:44:15;3.53;;;2.70;;
45011;SDS011;63444;48.148;11.542;2023-02-21T05:46:41;2.93;;;2.63;;
45011;SDS011;63444;48.148;11.542;2023-02-21T05:49:07;4.07;;;2.70;;
45011;SDS011;63444;48.148;11.542;2023-02-21T05:51:34;4.60;;;3.00;;
45011;SDS011;63444;48.148;11.542;2023-02-21T05:54:01;5.50;;;2.80;;
45011;SDS011;63444;48.148;11.542;2023-02-21T05:56:27;4.77;;;3.03;;
45011;SDS011;63444;48.148;11.542;2023-02-21T05:58:53;3.87;;;2.80;;
45011;SDS011;63444;48.148;11.542;2023-02-21T06:01:18;8.47;;;2.87;;
45011;SDS011;63444;48.148;11.542;2023-02-21T06:03:44;9.77;;;3.30;;
45011;SDS011;63444;48.148;11.542;2023-02-21T06:06:13;5.03;;;2.73;;
45011;SDS011;63444;48.148;11.542;2023-02-21T06:08:46;4.13;;;3.07;;
45011;SDS011;63444;48.148;11.542;2023-02-21T06:11:14;5.00;;;3.00;;
45011;SDS011;63444;48.148;11.542;2023-02-21T06:13:45;3.53;;;2.70;;
45011;SDS011;63444;48.148;11.542;2023-02-21T06:16:14;4.90;;;3.00;;
45011;SDS011;63444;48.148;11.542;2023-02-21T06:18:40;8.77;;;2.90;;
45011;SDS011;63444;48.148;11.542;2023-02-21T06:21:05;3.93;;;2.60;;
45011;SDS011;63444;48.148;11.542;2023-02-21T06:23:31;2.27;;;2.07;;
45011;SDS011;63444;48.148;11.542;2023-02-21T06:25:56;3.53;;;2.30;;
45011;SDS011;63444;48.148;11.542;2023-02-21T06:28:26;4.63;;;2.43;;
45011;SDS011;63444;48.148;11.542;2023-02-21T06:30:55;4.93;;;2.50;;
45011;SDS011;63444;48.148;11.542;2023-02-21T06:33:21;4.93;;;2.13;;
45011;SDS011;63444;48.148;11.542;2023-02-21T06:35:47;3.33;;;2.40;;
45011;SDS011;63444;48.148;11.542;2023-02-21T06:38:14;5.30;;;3.10;;
45011;SDS011;63444;48.148;11.542;2023-02-21T06:40:40;5.43;;;2.83;;
45011;SDS011;63444;48.148;11.542;2023-02-21T06:43:05;3.90;;;2.67;;
45011;SDS011;63444;48.148;11.542;2023-02-21T06:45:32;2.97;;;2.40;;
45011;SDS011;63444;48.148;11.542;2023-02-21T06:47:57;5.07;;;2.37;;
45011;SDS011;63444;48.148;11.542;2023-02-21T06:50:23;5.53;;;2.73;;
45011;SDS011;63444;48.148;11.542;2023-02-21T06:52:50;12.27;;;3.10;;
45011;SDS011;63444;48.148;11.542;2023-02-21T06:55:22;3.43;;;2.20;;
45011;SDS011;63444;48.148;11.542;2023-02-21T06:57:48;3.57;;;2.17;;
45011;SDS011;63444;48.148;11.542;2023-02-21T07:00:14;5.10;;;2.70;;
45011;SDS011;63444;48.148;11.542;2023-02-21T07:02:41;3.43;;;2.40;;
45011;SDS011;63444;48.148;11.542;2023-02-21T07:05:07;5.10;;;2.50;;
45011;SDS011;63444;48.148;11.542;2023-02-21T07:07:33;3.97;;;2.30;;
45011;SDS011;63444;48.148;11.542;2023-02-21T07:09:59;4.87;;;2.70;;
45011;SDS011;63444;48.148;11.542;2023-02-21T07:12:25;8.57;;;2.80;;
45011;SDS011;63444;48.148;11.542;2023-02-21T07:14:51;7.57;;;2.60;;
45011;SDS011;63444;48.148;11.542;2023-02-21T07:17:18;6.17;;;2.90;;
45011;SDS011;63444;48.148;11.542;2023-02-21T07:19:43;4.17;;;2.43;;
45011;SDS011;63444;48.148;11.542;2023-02-21T07:22:09;10.80;;;3.00;;
45011;SDS011;63444;48.148;11.542;2023-02-21T07:24:35;4.63;;;2.90;;
45011;SDS011;63444;48.148;11.542;2023-02-21T07:27:01;5.30;;;2.57;;
45011;SDS011;63444;48.148;11.542;2023-02-21T07:29:26;7.83;;;2.60;;
45011;SDS011;63444;48.148;11.542;2023-02-21T07:31:52;9.83;;;3.10;;
45011;SDS011;63444;48.148;11.542;2023-02-21T07:34:17;8.20;;;2.93;;
45011;SDS011;63444;48.148;11.542;2023-02-21T07:36:44;4.97;;;2.80;;
45011;SDS011;63444;48.148;11.542;2023-02-21T07:39:13;4.40;;;2.90;;
45011;SDS011;63444;48.148;11.542;2023-02-21T07:41:39;10.93;;;3.43;;
45011;SDS011;63444;48.148;11.542;2023-02-21T07:44:04;4.13;;;2.60;;
45011;SDS011;63444;48.148;11.542;2023-02-21T07:46:31;5.80;;;2.87;;
45011;SDS011;63444;48.148;11.542;2023-02-21T07:48:58;7.47;;;2.73;;
45011;SDS011;63444;48.148;11.542;2023-02-21T07:51:26;6.10;;;2.37;;
45011;SDS011;63444;48.148;11.542;2023-02-21T07:53:53;6.03;;;2.77;;
45011;SDS011;63444;48.148;11.542;2023-02-21T07:56:18;6.60;;;2.50;;
45011;SDS011;63444;48.148;11.542;2023-02-21T07:58:44;4.30;;;2.77;;
45011;SDS011;63444;48.148;11.542;2023-02-21T08:01:10;9.60;;;2.70;;
45011;SDS011;63444;48.148;11.542;2023-02-21T08:03:35;4.77;;;2.50;;
45011;SDS011;63444;48.148;11.542;2023-02-21T08:06:02;7.33;;;2.53;;
45011;SDS011;63444;48.148;11.542;2023-02-21T08:08:28;3.00;;;2.40;;
45011;SDS011;63444;48.148;11.542;2023-02-21T08:10:53;4.83;;;2.40;;
45011;SDS011;63444;48.148;11.542;2023-02-21T08:13:19;6.33;;;2.90;;
45011;SDS011;63444;48.148;11.542;2023-02-21T08:15:44;6.23;;;2.50;;
45011;SDS011;63444;48.148;11.542;2023-02-21T08:18:14;8.47;;;2.90;;
45011;SDS011;63444;48.148;11.542;2023-02-21T08:20:44;7.73;;;2.90;;
45011;SDS011;63444;48.148;11.542;2023-02-21T08:23:14;8.03;;;2.83;;
45011;SDS011;63444;48.148;11.542;2023-02-21T08:25:42;6.93;;;2.73;;
45011;SDS011;63444;48.148;11.542;2023-02-21T08:28:08;6.97;;;2.30;;
45011;SDS011;63444;48.148;11.542;2023-02-21T08:30:35;5.03;;;2.63;;
45011;SDS011;63444;48.148;11.542;2023-02-21T08:33:01;4.00;;;2.47;;
45011;SDS011;63444;48.148;11.542;2023-02-21T08:35:26;5.37;;;2.70;;
45011;SDS011;63444;48.148;11.542;2023-02-21T08:37:52;9.70;;;2.53;;
45011;SDS011;63444;48.148;11.542;2023-02-21T08:40:21;5.50;;;2.60;;
45011;SDS011;63444;48.148;11.542;2023-02-21T08:42:48;3.73;;;2.40;;
45011;SDS011;63444;48.148;11.542;2023-02-21T08:45:16;4.60;;;2.60;;
45011;SDS011;63444;48.148;11.542;2023-02-21T08:47:43;4.97;;;2.50;;
45011;SDS011;63444;48.148;11.542;2023-02-21T08:50:09;8.87;;;2.90;;
45011;SDS011;63444;48.148;11.542;2023-02-21T08:52:35;5.90;;;2.50;;
45011;SDS011;63444;48.148;11.542;2023-02-21T08:55:01;6.47;;;2.40;;
45011;SDS011;63444;48.148;11.542;2023-02-21T08:57:27;4.17;;;2.50;;
45011;SDS011;63444;48.148;11.542;2023-02-21T08:59:52;4.67;;;2.13;;
45011;SDS011;63444;48.148;11.542;2023-02-21T09:02:19;3.87;;;1.97;;
45011;SDS011;63444;48.148;11.542;2023-02-21T09:04:49;2.47;;;2.03;;
45011;SDS011;63444;48.148;11.542;2023-02-21T09:07:17;3.70;;;2.10;;
45011;SDS011;63444;48.148;11.542;2023-02-21T09:09:43;4.43;;;2.30;;
45011;SDS011;63444;48.148;11.542;2023-02-21T09:12:09;2.70;;;1.90;;
45011;SDS011;63444;48.148;11.542;2023-02-21T09:14:35;3.23;;;1.80;;
45011;SDS011;63444;48.148;11.542;2023-02-21T09:17:02;5.17;;;1.70;;
45011;SDS011;63444;48.148;11.542;2023-02-21T09:19:30;3.47;;;1.90;;
45011;SDS011;63444;48.148;11.542;2023-02-21T09:21:56;10.87;;;2.50;;
45011;SDS011;63444;48.148;11.542;2023-02-21T09:24:22;4.47;;;1.70;;
45011;SDS011;63444;48.148;11.542;2023-02-21T09:26:56;2.80;;;1.90;;
45011;SDS011;63444;48.148;11.542;2023-02-21T09:29:31;4.00;;;1.97;;
45011;SDS011;63444;48.148;11.542;2023-02-21T09:31:58;5.55;;;2.10;;
45011;SDS011;63444;48.148;11.542;2023-02-21T09:34:24;6.17;;;2.30;;
45011;SDS011;63444;48.148;11.542;2023-02-21T09:36:50;4.53;;;2.50;;
45011;SDS011;63444;48.148;11.542;2023-02-21T09:39:16;2.10;;;1.80;;
45011;SDS011;63444;48.148;11.542;2023-02-21T09:41:43;3.00;;;1.60;;
45011;SDS011;63444;48.148;11.542;2023-02-21T09:44:11;2.70;;;1.60;;
45011;SDS011;63444;48.148;11.542;2023-02-21T09:49:12;1.80;;;1.50;;
45011;SDS011;63444;48.148;11.542;2023-02-21T09:51:45;8.43;;;2.63;;
45011;SDS011;63444;48.148;11.542;2023-02-21T09:54:18;6.93;;;1.83;;
45011;SDS011;63444;48.148;11.542;2023-02-21T09:56:59;4.37;;;1.90;;
45011;SDS011;63444;48.148;11.542;2023-02-21T09:59:26;2.10;;;1.40;;
45011;SDS011;63444;48.148;11.542;2023-02-21T10:07:26;2.78;;;1.60;;
45011;SDS011;63444;48.148;11.542;2023-02-21T10:09:59;5.07;;;1.70;;
45011;SDS011;63444;48.148;11.542;2023-02-21T10:12:36;4.63;;;1.90;;
45011;SDS011;63444;48.148;11.542;2023-02-21T10:20:28;3.95;;;1.50;;
45011;SDS011;63444;48.148;11.542;2023-02-21T10:23:17;3.13;;;1.50;;
45011;SDS011;63444;48.148;11.542;2023-02-21T10:25:47;2.13;;;1.38;;
45011;SDS011;63444;48.148;11.542;2023-02-21T10:28:22;1.70;;;1.30;;
45011;SDS011;63444;48.148;11.542;2023-02-21T10:30:49;2.05;;;1.30;;
45011;SDS011;63444;48.148;11.542;2023-02-21T10:33:20;1.92;;;1.30;;
45011;SDS011;63444;48.148;11.542;2023-02-21T10:35:46;2.25;;;1.30;;
45011;SDS011;63444;48.148;11.542;2023-02-21T10:38:13;3.17;;;1.20;;
45011;SDS011;63444;48.148;11.542;2023-02-21T10:40:46;3.28;;;1.10;;
45011;SDS011;63444;48.148;11.542;2023-02-21T10:43:20;2.80;;;1.38;;
45011;SDS011;63444;48.148;11.542;2023-02-21T10:48:42;1.70;;;1.17;;
45011;SDS011;63444;48.148;11.542;2023-02-21T10:51:15;2.40;;;1.45;;
45011;SDS011;63444;48.148;11.542;2023-02-21T10:53:43;2.40;;;1.20;;
45011;SDS011;63444;48.148;11.542;2023-02-21T10:59:01;2.70;;;1.30;;
45011;SDS011;63444;48.148;11.542;2023-02-21T11:04:09;3.17;;;1.73;;
45011;SDS011;63444;48.148;11.542;2023-02-21T11:06:53;4.78;;;1.48;;
45011;SDS011;63444;48.148;11.542;2023-02-21T11:09:34;3.53;;;1.33;;
45011;SDS011;63444;48.148;11.542;2023-02-21T11:14:40;1.52;;;1.20;;
45011;SDS011;63444;48.148;11.542;2023-02-21T11:19:42;2.33;;;1.60;;
45011;SDS011;63444;48.148;11.542;2023-02-21T11:22:10;2.45;;;2.00;;
45011;SDS011;63444;48.148;11.542;2023-02-21T11:27:37;4.93;;;1.60;;
45011;SDS011;63444;48.148;11.542;2023-02-21T11:30:13;2.65;;;1.10;;
45011;SDS011;63444;48.148;11.542;2023-02-21T11:32:47;3.05;;;1.17;;
45011;SDS011;63444;48.148;11.542;2023-02-21T11:38:03;4.57;;;1.20;;
45011;SDS011;63444;48.148;11.542;2023-02-21T11:40:42;2.85;;;1.58;;
45011;SDS011;63444;48.148;11.542;2023-02-21T11:43:25;4.80;;;1.65;;
45011;SDS011;63444;48.148;11.542;2023-02-21T11:54:12;1.77;;;1.00;;
45011;SDS011;63444;48.148;11.542;2023-02-21T12:10:43;2.25;;;1.00;;
45011;SDS011;63444;48.148;11.542;2023-02-21T12:19:07;1.88;;;1.10;;
45011;SDS011;63444;48.148;11.542;2023-02-21T12:38:35;5.65;;;1.50;;
45011;SDS011;63444;48.148;11.542;2023-02-21T12:41:15;2.20;;;1.60;;
45011;SDS011;63444;48.148;11.542;2023-02-21T12:44:17;5.47;;;1.42;;
45011;SDS011;63444;48.148;11.542;2023-02-21T12:55:00;1.27;;;1.13;;
45011;SDS011;63444;48.148;11.542;2023-02-21T12:57:31;4.00;;;1.40;;
45011;SDS011;63444;48.148;11.542;2023-02-21T13:00:20;2.03;;;1.40;;
45011;SDS011;63444;48.148;11.542;2023-02-21T13:05:56;2.78;;;1.30;;
45011;SDS011;63444;48.148;11.542;2023-02-21T13:08:27;3.22;;;1.15;;
45011;SDS011;63444;48.148;11.542;2023-02-21T13:11:36;1.98;;;1.30;;
45011;SDS011;63444;48.148;11.542;2023-02-21T13:14:00;3.67;;;1.25;;
45011;SDS011;63444;48.148;11.542;2023-02-21T13:16:26;3.55;;;1.20;;
45011;SDS011;63444;48.148;11.542;2023-02-21T13:18:56;2.38;;;1.30;;
45011;SDS011;63444;48.148;11.542;2023-02-21T13:21:33;2.28;;;1.40;;
45011;SDS011;63444;48.148;11.542;2023-02-21T13:24:05;2.88;;;1.25;;
45011;SDS011;63444;48.148;11.542;2023-02-21T13:29:30;2.45;;;1.27;;
45011;SDS011;63444;48.148;11.542;2023-02-21T13:32:00;2.65;;;1.30;;
45011;SDS011;63444;48.148;11.542;2023-02-21T13:34:34;1.10;;;1.00;;
45011;SDS011;63444;48.148;11.542;2023-02-21T13:37:07;6.10;;;1.80;;
45011;SDS011;63444;48.148;11.542;2023-02-21T13:39:57;4.80;;;1.30;;
45011;SDS011;63444;48.148;11.542;2023-02-21T13:42:31;2.63;;;1.50;;
45011;SDS011;63444;48.148;11.542;2023-02-21T13:45:21;2.45;;;1.33;;
45011;SDS011;63444;48.148;11.542;2023-02-21T13:55:32;3.92;;;1.38;;
45011;SDS011;63444;48.148;11.542;2023-02-21T14:05:23;2.53;;;1.20;;
45011;SDS011;63444;48.148;11.542;2023-02-21T14:08:02;2.08;;;1.05;;
45011;SDS011;63444;48.148;11.542;2023-02-21T14:10:39;1.50;;;1.20;;
45011;SDS011;63444;48.148;11.542;2023-02-21T14:13:21;1.55;;;1.10;;
45011;SDS011;63444;48.148;11.542;2023-02-21T14:15:59;2.65;;;1.10;;
45011;SDS011;63444;48.148;11.542;2023-02-21T14:18:35;2.95;;;1.40;;
45011;SDS011;63444;48.148;11.542;2023-02-21T14:21:21;1.73;;;1.00;;
45011;SDS011;63444;48.148;11.542;2023-02-21T14:23:57;1.20;;;1.10;;
45011;SDS011;63444;48.148;11.542;2023-02-21T14:29:26;2.03;;;1.00;;
45011;SDS011;63444;48.148;11.542;2023-02-21T14:31:55;1.15;;;0.90;;
45011;SDS011;63444;48.148;11.542;2023-02-21T14:39:54;1.00;;;1.00;;
45011;SDS011;63444;48.148;11.542;2023-02-21T14:42:41;1.93;;;0.90;;
45011;SDS011;63444;48.148;11.542;2023-02-21T14:50:45;1.60;;;1.00;;
45011;SDS011;63444;48.148;11.542;2023-02-21T14:57:06;1.23;;;0.90;;
45011;SDS011;63444;48.148;11.542;2023-02-21T14:59:43;1.40;;;0.80;;
45011;SDS011;63444;48.148;11.542;2023-02-21T15:02:17;2.23;;;1.20;;
45011;SDS011;63444;48.148;11.542;2023-02-21T15:10:25;1.27;;;1.13;;
45011;SDS011;63444;48.148;11.542;2023-02-21T15:12:57;2.40;;;1.00;;
45011;SDS011;63444;48.148;11.542;2023-02-21T15:18:05;4.00;;;1.10;;
45011;SDS011;63444;48.148;11.542;2023-02-21T15:20:40;1.02;;;0.90;;
45011;SDS011;63444;48.148;11.542;2023-02-21T15:23:14;1.83;;;0.90;;
45011;SDS011;63444;48.148;11.542;2023-02-21T15:25:43;3.13;;;1.07;;
45011;SDS011;63444;48.148;11.542;2023-02-21T15:28:24;2.08;;;1.10;;
45011;SDS011;63444;48.148;11.542;2023-02-21T15:31:02;1.92;;;1.00;;
45011;SDS011;63444;48.148;11.542;2023-02-21T15:33:37;2.30;;;1.00;;
45011;SDS011;63444;48.148;11.542;2023-02-21T15:36:05;2.30;;;1.27;;
45011;SDS011;63444;48.148;11.542;2023-02-21T15:38:44;3.23;;;1.17;;
45011;SDS011;63444;48.148;11.542;2023-02-21T15:41:35;3.80;;;1.30;;
45011;SDS011;63444;48.148;11.542;2023-02-21T15:44:10;12.17;;;8.83;;
45011;SDS011;63444;48.148;11.542;2023-02-21T15:46:45;3.57;;;2.30;;
45011;SDS011;63444;48.148;11.542;2023-02-21T15:49:17;2.40;;;1.20;;
45011;SDS011;63444;48.148;11.542;2023-02-21T15:51:48;1.98;;;1.30;;
45011;SDS011;63444;48.148;11.542;2023-02-21T15:56:45;5.03;;;1.90;;
45011;SDS011;63444;48.148;11.542;2023-02-21T15:59:26;4.07;;;2.05;;
45011;SDS011;63444;48.148;11.542;2023-02-21T16:02:12;3.83;;;1.90;;
45011;SDS011;63444;48.148;11.542;2023-02-21T16:04:50;5.00;;;1.77;;
45011;SDS011;63444;48.148;11.542;2023-02-21T16:09:46;6.70;;;1.93;;
45011;SDS011;63444;48.148;11.542;2023-02-21T16:17:37;6.37;;;2.10;;
45011;SDS011;63444;48.148;11.542;2023-02-21T16:22:38;3.80;;;1.70;;
45011;SDS011;63444;48.148;11.542;2023-02-21T16:27:43;5.47;;;1.57;;
45011;SDS011;63444;48.148;11.542;2023-02-21T16:30:24;3.67;;;1.90;;
45011;SDS011;63444;48.148;11.542;2023-02-21T16:32:52;4.47;;;1.80;;
45011;SDS011;63444;48.148;11.542;2023-02-21T16:35:23;4.43;;;1.63;;
45011;SDS011;63444;48.148;11.542;2023-02-21T16:37:51;6.30;;;2.23;;
45011;SDS011;63444;48.148;11.542;2023-02-21T16:40:28;9.60;;;2.40;;
45011;SDS011;63444;48.148;11.542;2023-02-21T16:42:58;7.80;;;2.10;;
45011;SDS011;63444;48.148;11.542;2023-02-21T16:45:26;6.67;;;2.23;;
45011;SDS011;63444;48.148;11.542;2023-02-21T16:48:12;5.10;;;2.00;;
45011;SDS011;63444;48.148;11.542;2023-02-21T16:50:41;5.43;;;2.00;;
45011;SDS011;63444;48.148;11.542;2023-02-21T16:53:10;3.70;;;2.20;;
45011;SDS011;63444;48.148;11.542;2023-02-21T16:55:37;8.00;;;3.40;;
45011;SDS011;63444;48.148;11.542;2023-02-21T16:58:06;11.30;;;3.00;;
45011;SDS011;63444;48.148;11.542;2023-02-21T17:00:43;5.37;;;2.00;;
45011;SDS011;63444;48.148;11.542;2023-02-21T17:03:09;7.43;;;1.70;;
45011;SDS011;63444;48.148;11.542;2023-02-21T17:05:34;4.17;;;1.97;;
45011;SDS011;63444;48.148;11.542;2023-02-21T17:08:00;7.30;;;2.20;;
45011;SDS011;63444;48.148;11.542;2023-02-21T17:10:27;3.73;;;1.90;;
45011;SDS011;63444;48.148;11.542;2023-02-21T17:12:52;8.23;;;2.60;;
45011;SDS011;63444;48.148;11.542;2023-02-21T17:15:18;5.23;;;2.20;;
45011;SDS011;63444;48.148;11.542;2023-02-21T17:17:45;5.13;;;1.90;;
45011;SDS011;63444;48.148;11.542;2023-02-21T17:20:14;5.10;;;1.60;;
45011;SDS011;63444;48.148;11.542;2023-02-21T17:22:41;3.73;;;2.07;;
45011;SDS011;63444;48.148;11.542;2023-02-21T17:25:08;7.60;;;2.63;;
45011;SDS011;63444;48.148;11.542;2023-02-21T17:27:34;4.73;;;2.77;;
45011;SDS011;63444;48.148;11.542;2023-02-21T17:30:00;9.63;;;2.97;;
45011;SDS011;63444;48.148;11.542;2023-02-21T17:32:25;4.67;;;2.50;;
45011;SDS011;63444;48.148;11.542;2023-02-21T17:34:51;7.00;;;2.80;;
45011;SDS011;63444;48.148;11.542;2023-02-21T17:37:17;10.20;;;2.60;;
45011;SDS011;63444;48.148;11.542;2023-02-21T17:39:43;7.57;;;3.03;;
45011;SDS011;63444;48.148;11.542;2023-02-21T17:42:08;5.37;;;2.77;;
45011;SDS011;63444;48.148;11.542;2023-02-21T17:44:34;5.93;;;2.50;;
45011;SDS011;63444;48.148;11.542;2023-02-21T17:47:02;7.13;;;2.67;;
45011;SDS011;63444;48.148;11.542;2023-02-21T17:49:31;8.73;;;3.40;;
45011;SDS011;63444;48.148;11.542;2023-02-21T17:51:57;6.73;;;3.10;;
45011;SDS011;63444;48.148;11.542;2023-02-21T17:54:23;4.73;;;2.60;;
45011;SDS011;63444;48.148;11.542;2023-02-21T17:56:50;4.87;;;2.57;;
45011;SDS011;63444;48.148;11.542;2023-02-21T17:59:16;5.40;;;3.10;;
45011;SDS011;63444;48.148;11.542;2023-02-21T18:01:42;7.53;;;3.30;;
45011;SDS011;63444;48.148;11.542;2023-02-21T18:04:09;6.37;;;2.93;;
45011;SDS011;63444;48.148;11.542;2023-02-21T18:06:35;4.80;;;3.13;;